Time;durP1;ratioP1;P1;durP2;ratioP2;P2;SDS_P1;SDS_P2;PMS_P1;PMS_P2;Temp;Humidity;BMP_temperature;BMP_pressure;BME280_temperature;BME280_humidity;BME280_pressure;Samples;Min_cycle;Max_cycle;Signal;HPM_P1;HPM_P2
2023/10/27 00:01:42;;;;;;;30.45;21.58;;;;;;;12.09;100.00;98950.34;3598912;39;20048;-64
2023/10/27 00:04:07;;;;;;;31.08;22.00;;;;;;;12.12;100.00;98951.88;3596850;39;20472;-65
2023/10/27 00:06:33;;;;;;;29.35;21.38;;;;;;;11.58;100.00;98861.03;3598936;39;20052;-65
2023/10/27 00:09:00;;;;;;;32.08;22.77;;;;;;;12.12;100.00;98950.03;3601291;39;20054;-65
2023/10/27 00:11:25;;;;;;;30.88;20.88;;;;;;;12.13;100.00;98946.34;3599608;39;20055;-65
2023/10/27 00:13:51;;;;;;;28.52;21.90;;;;;;;11.59;100.00;98861.88;3601319;39;20066;-65
2023/10/27 00:16:17;;;;;;;27.02;21.15;;;;;;;12.13;100.00;98946.34;3601211;39;20091;-66
2023/10/27 00:18:43;;;;;;;30.80;22.38;;;;;;;12.13;100.00;98948.19;3594111;39;20057;-65
2023/10/27 00:21:09;;;;;;;31.35;21.67;;;;;;;12.11;100.00;98951.00;3603335;39;20064;-65
2023/10/27 00:23:34;;;;;;;28.20;21.25;;;;;;;12.05;100.00;98932.75;3600086;39;20067;-65
2023/10/27 00:26:01;;;;;;;31.58;23.10;;;;;;;12.11;100.00;98942.09;3597948;39;20055;-65
2023/10/27 00:28:28;;;;;;;31.92;21.73;;;;;;;11.55;100.00;98847.88;3600806;39;20051;-65
2023/10/27 00:30:54;;;;;;;28.63;22.27;;;;;;;12.02;100.00;98931.25;3600785;39;20039;-65
2023/10/27 00:33:20;;;;;;;32.13;22.80;;;;;;;12.06;100.00;98935.31;3591215;39;20077;-64
2023/10/27 00:35:53;;;;;;;31.60;23.67;;;;;;;12.05;100.00;98932.75;3599574;39;20062;-65
2023/10/27 00:38:20;;;;;;;34.17;24.17;;;;;;;12.05;100.00;98927.38;3601472;39;20127;-66
2023/10/27 00:40:46;;;;;;;33.63;23.50;;;;;;;11.54;100.00;98840.78;3601560;39;20066;-65
2023/10/27 00:43:17;;;;;;;34.10;23.63;;;;;;;12.05;100.00;98921.97;3601684;39;20421;-66
2023/10/27 00:45:50;;;;;;;37.50;24.55;;;;;;;12.04;100.00;98926.53;3599578;39;20058;-66
2023/10/27 00:48:21;;;;;;;32.57;23.27;;;;;;;12.04;100.00;98925.69;3598526;39;20047;-65
2023/10/27 00:50:48;;;;;;;32.70;23.50;;;;;;;12.04;100.00;98926.53;3598328;39;20480;-66
2023/10/27 00:53:20;;;;;;;36.47;24.35;;;;;;;12.05;100.00;98927.38;3601613;39;20099;-65
2023/10/27 00:55:48;;;;;;;32.03;22.45;;;;;;;12.06;100.00;98927.25;3593178;39;20318;-65
2023/10/27 00:58:15;;;;;;;31.25;22.65;;;;;;;12.08;100.00;98925.25;3600657;39;20047;-66
2023/10/27 01:00:42;;;;;;;31.15;21.92;;;;;;;12.06;100.00;98919.16;3600795;39;20128;-65
2023/10/27 01:03:08;;;;;;;28.95;21.45;;;;;;;12.07;100.00;98915.44;3602497;39;20063;-66
2023/10/27 01:05:33;;;;;;;34.70;22.73;;;;;;;11.58;100.00;98836.81;3600542;39;20416;-65
2023/10/27 01:08:02;;;;;;;32.63;22.65;;;;;;;11.77;100.00;98864.63;3602254;39;20047;-65
2023/10/27 01:10:28;;;;;;;29.95;20.35;;;;;;;11.61;100.00;98839.19;3603314;39;20320;-65
2023/10/27 01:12:54;;;;;;;29.70;21.05;;;;;;;12.12;100.00;98917.72;3594754;39;20482;-65
2023/10/27 01:15:19;;;;;;;33.53;21.35;;;;;;;12.12;100.00;98912.31;3601324;39;20047;-65
2023/10/27 01:17:46;;;;;;;29.58;20.48;;;;;;;12.13;100.00;98913.16;3602110;39;20112;-65
2023/10/27 01:20:12;;;;;;;28.35;20.55;;;;;;;12.08;100.00;98908.22;3603198;39;20052;-66
2023/10/27 01:22:47;;;;;;;32.60;20.20;;;;;;;12.15;100.00;98919.25;3602453;39;20128;-65
2023/10/27 01:25:14;;;;;;;30.70;20.83;;;;;;;12.16;100.00;98912.88;3603166;39;20059;-65
2023/10/27 01:27:40;;;;;;;27.65;19.75;;;;;;;12.17;100.00;98918.09;3600628;39;20060;-65
2023/10/27 01:30:08;;;;;;;28.42;19.25;;;;;;;12.15;100.00;98911.19;3600027;39;20055;-65
2023/10/27 01:32:37;;;;;;;29.77;19.38;;;;;;;12.13;100.00;98911.31;3599749;39;20063;-65
2023/10/27 01:35:04;;;;;;;28.13;19.10;;;;;;;12.13;100.00;98908.63;3603587;39;20320;-65
2023/10/27 01:37:29;;;;;;;27.67;20.08;;;;;;;12.16;100.00;98907.47;3603281;39;20082;-64
2023/10/27 01:39:56;;;;;;;29.02;19.63;;;;;;;12.15;100.00;98912.03;3603696;39;20055;-64
2023/10/27 01:42:23;;;;;;;27.13;18.13;;;;;;;12.16;100.00;98902.94;3598640;39;20397;-65
2023/10/27 01:44:50;;;;;;;29.70;17.60;;;;;;;12.17;100.00;98911.84;3602326;39;20068;-65
2023/10/27 01:47:15;;;;;;;25.13;18.25;;;;;;;12.15;100.00;98911.19;3602125;39;20128;-65
2023/10/27 01:49:41;;;;;;;25.10;16.95;;;;;;;12.09;100.00;98891.09;3603519;39;20059;-65
2023/10/27 01:52:07;;;;;;;26.15;16.20;;;;;;;12.14;100.00;98899.53;3603797;39;20271;-65
2023/10/27 01:54:32;;;;;;;27.33;17.50;;;;;;;12.16;100.00;98902.94;3601629;39;20059;-65
2023/10/27 01:56:58;;;;;;;25.75;16.60;;;;;;;12.00;100.00;98882.06;3599552;39;20098;-65
2023/10/27 01:59:23;;;;;;;25.52;16.42;;;;;;;12.18;100.00;98905.47;3599946;39;20043;-65
2023/10/27 02:01:49;;;;;;;23.88;16.25;;;;;;;12.18;100.00;98902.75;3602774;39;20109;-65
2023/10/27 02:04:14;;;;;;;23.80;14.82;;;;;;;12.16;100.00;98894.84;3600608;39;20047;-65
2023/10/27 02:06:40;;;;;;;23.27;15.05;;;;;;;11.74;100.00;98830.75;3600015;39;20060;-65
2023/10/27 02:09:06;;;;;;;23.95;15.80;;;;;;;12.19;100.00;98893.72;3601606;39;20059;-65
2023/10/27 02:11:31;;;;;;;24.67;14.48;;;;;;;12.19;100.00;98897.25;3602738;39;20433;-66
2023/10/27 02:13:57;;;;;;;22.85;14.50;;;;;;;12.19;100.00;98893.72;3603582;39;20051;-65
2023/10/27 02:16:22;;;;;;;21.65;14.52;;;;;;;12.13;100.00;98875.47;3598566;39;20043;-65
2023/10/27 02:18:48;;;;;;;25.00;15.32;;;;;;;12.12;100.00;98877.31;3600294;39;20784;-64
2023/10/27 02:21:13;;;;;;;24.58;15.77;;;;;;;12.17;100.00;98883.06;3600371;39;20067;-65
2023/10/27 02:23:39;;;;;;;23.95;15.57;;;;;;;12.15;100.00;98882.41;3602134;39;20078;-65
2023/10/27 02:26:05;;;;;;;20.15;14.18;;;;;;;12.16;100.00;98884.06;3602239;39;20052;-65
2023/10/27 02:28:30;;;;;;;22.73;13.38;;;;;;;12.16;100.00;98876.00;3601915;39;20089;-65
2023/10/27 02:30:56;;;;;;;21.05;13.38;;;;;;;12.14;100.00;98877.97;3602266;39;20062;-64
2023/10/27 02:33:21;;;;;;;22.10;13.98;;;;;;;11.62;100.00;98787.06;3599823;39;20062;-65
2023/10/27 02:35:47;;;;;;;21.83;13.13;;;;;;;12.13;100.00;98875.47;3599351;39;20055;-65
2023/10/27 02:38:13;;;;;;;25.27;11.93;;;;;;;12.04;100.00;98864.59;3601153;39;20047;-64
2023/10/27 02:40:38;;;;;;;22.98;14.65;;;;;;;12.08;100.00;98871.38;3603123;39;20070;-64
2023/10/27 02:43:04;;;;;;;28.35;16.35;;;;;;;11.72;100.00;98811.22;3603282;39;20294;-65
2023/10/27 02:45:30;;;;;;;19.55;12.27;;;;;;;12.08;100.00;98866.00;3600930;39;20078;-64
2023/10/27 02:47:55;;;;;;;18.52;10.13;;;;;;;12.05;100.00;98865.44;3601975;39;20412;-65
2023/10/27 02:50:21;;;;;;;17.63;9.80;;;;;;;12.01;100.00;98855.97;3601533;39;20410;-64
2023/10/27 02:52:47;;;;;;;17.48;10.18;;;;;;;12.05;100.00;98862.75;3600808;39;20052;-64
2023/10/27 02:55:12;;;;;;;17.00;9.52;;;;;;;12.03;100.00;98865.59;3597731;39;20063;-65
2023/10/27 02:57:38;;;;;;;16.52;9.32;;;;;;;12.00;100.00;98865.91;3601894;39;20059;-64
2023/10/27 03:00:07;;;;;;;16.35;9.40;;;;;;;12.00;100.00;98859.69;3600265;39;20055;-64
2023/10/27 03:02:32;;;;;;;18.27;9.27;;;;;;;11.89;100.00;98835.66;3601221;39;20128;-64
2023/10/27 03:04:58;;;;;;;17.77;9.25;;;;;;;11.96;100.00;98856.44;3603294;39;20056;-64
2023/10/27 03:07:24;;;;;;;16.90;9.65;;;;;;;11.95;100.00;98865.50;3599752;39;20054;-63
2023/10/27 03:09:50;;;;;;;19.70;8.80;;;;;;;11.94;100.00;98852.19;3601287;39;20290;-63
2023/10/27 03:12:16;;;;;;;15.70;8.10;;;;;;;11.95;100.00;98856.59;3601901;39;20051;-63
2023/10/27 03:14:42;;;;;;;16.65;9.30;;;;;;;11.83;100.00;98826.31;3599010;39;20065;-64
2023/10/27 03:17:08;;;;;;;15.75;8.23;;;;;;;11.96;100.00;98852.91;3599231;39;20327;-63
2023/10/27 03:19:34;;;;;;;15.85;9.23;;;;;;;11.95;100.00;98853.88;3598083;39;20064;-63
2023/10/27 03:22:01;;;;;;;18.98;9.23;;;;;;;11.96;100.00;98850.22;3599952;39;20055;-62
2023/10/27 03:24:26;;;;;;;15.88;8.77;;;;;;;11.94;100.00;98850.34;3601888;39;20050;-63
2023/10/27 03:26:52;;;;;;;16.15;8.63;;;;;;;11.38;100.00;98763.44;3602429;39;20311;-64
2023/10/27 03:29:18;;;;;;;14.85;8.57;;;;;;;11.96;100.00;98852.91;3599289;39;20047;-63
2023/10/27 03:31:43;;;;;;;14.73;8.13;;;;;;;11.93;100.00;98845.13;3601850;39;20403;-63
2023/10/27 03:34:09;;;;;;;18.42;8.73;;;;;;;11.94;100.00;98844.13;3600409;39;20054;-63
2023/10/27 03:36:34;;;;;;;14.63;8.02;;;;;;;11.98;100.00;98850.91;3601154;39;20386;-63
2023/10/27 03:39:00;;;;;;;17.27;7.57;;;;;;;11.93;100.00;98845.13;3600905;39;20047;-64
2023/10/27 03:41:26;;;;;;;14.40;7.68;;;;;;;11.95;100.00;98841.25;3601503;39;20067;-64
2023/10/27 03:43:52;;;;;;;18.20;7.78;;;;;;;11.91;100.00;98844.44;3594666;39;20054;-63
2023/10/27 03:46:18;;;;;;;18.77;7.88;;;;;;;11.90;100.00;98831.97;3600207;39;20063;-63
2023/10/27 03:48:44;;;;;;;15.93;8.27;;;;;;;11.94;100.00;98841.44;3600077;39;20059;-63
2023/10/27 03:51:11;;;;;;;19.35;7.78;;;;;;;11.91;100.00;98844.44;3599971;39;20107;-63
2023/10/27 03:53:37;;;;;;;15.43;7.70;;;;;;;11.82;100.00;98825.44;3599583;39;20048;-63
2023/10/27 03:56:03;;;;;;;15.27;7.95;;;;;;;11.94;100.00;98844.97;3601962;39;20055;-64
2023/10/27 03:58:30;;;;;;;16.98;8.38;;;;;;;11.92;100.00;98841.56;3600951;39;20506;-63
2023/10/27 04:00:55;;;;;;;16.65;8.30;;;;;;;11.90;100.00;98834.66;3594191;39;20039;-63
2023/10/27 04:03:21;;;;;;;18.17;7.93;;;;;;;11.83;100.00;98827.16;3600952;39;20398;-63
2023/10/27 04:05:46;;;;;;;12.90;7.43;;;;;;;11.91;100.00;98844.44;3595111;39;20047;-63
2023/10/27 04:08:12;;;;;;;12.93;7.30;;;;;;;11.93;100.00;98837.06;3597769;39;20051;-63
2023/10/27 04:10:38;;;;;;;15.68;7.40;;;;;;;11.91;100.00;98836.34;3597480;39;20383;-63
2023/10/27 04:13:04;;;;;;;15.07;7.35;;;;;;;11.89;100.00;98835.66;3601759;39;20047;-63
2023/10/27 04:15:30;;;;;;;15.95;8.07;;;;;;;11.89;100.00;98839.19;3600358;39;20077;-63
2023/10/27 04:17:56;;;;;;;14.68;7.55;;;;;;;11.34;100.00;98745.03;3599424;39;20060;-63
2023/10/27 04:20:22;;;;;;;11.90;7.20;;;;;;;11.90;100.00;98842.75;3593156;39;20059;-63
2023/10/27 04:22:47;;;;;;;14.82;7.88;;;;;;;11.91;100.00;98841.75;3600468;39;20040;-63
2023/10/27 04:25:13;;;;;;;14.77;7.35;;;;;;;11.89;100.00;98841.03;3593820;39;20438;-62
2023/10/27 04:27:39;;;;;;;18.10;7.78;;;;;;;11.88;100.00;98839.34;3604994;39;20097;-63
2023/10/27 04:30:07;;;;;;;13.32;7.38;;;;;;;11.89;100.00;98849.09;3603275;39;20383;-63
2023/10/27 04:32:36;;;;;;;14.70;6.97;;;;;;;11.88;100.00;98840.19;3598306;39;20067;-63
2023/10/27 04:35:03;;;;;;;13.80;7.15;;;;;;;11.87;100.00;98838.50;3594690;39;20351;-63
2023/10/27 04:37:32;;;;;;;15.00;7.03;;;;;;;11.87;100.00;98834.97;3601045;39;20062;-63
2023/10/27 04:40:00;;;;;;;15.05;7.55;;;;;;;11.86;100.00;98836.78;3602411;39;20044;-63
2023/10/27 04:42:27;;;;;;;13.65;7.40;;;;;;;11.87;100.00;98845.75;3595396;39;20301;-63
2023/10/27 04:44:53;;;;;;;14.15;6.97;;;;;;;11.85;100.00;98837.81;3599995;39;20153;-63
2023/10/27 04:47:19;;;;;;;12.68;6.70;;;;;;;11.87;100.00;98843.88;3592588;39;20054;-63
2023/10/27 04:49:46;;;;;;;18.20;7.50;;;;;;;11.85;100.00;98838.63;3599980;39;20144;-63
2023/10/27 04:52:12;;;;;;;20.52;7.45;;;;;;;11.87;100.00;98838.50;3600714;39;20043;-63
2023/10/27 04:54:37;;;;;;;16.08;7.25;;;;;;;11.88;100.00;98839.34;3602560;39;20059;-63
2023/10/27 04:57:03;;;;;;;13.15;7.10;;;;;;;11.87;100.00;98835.81;3602058;39;20416;-64
2023/10/27 04:59:32;;;;;;;15.45;7.03;;;;;;;11.87;100.00;98837.66;3601393;39;20067;-62
2023/10/27 05:01:59;;;;;;;15.00;6.97;;;;;;;11.85;100.00;98830.56;3602119;39;20275;-63
2023/10/27 05:04:25;;;;;;;11.48;7.30;;;;;;;11.84;100.00;98833.41;3601904;39;20056;-63
2023/10/27 05:06:51;;;;;;;14.95;7.25;;;;;;;11.85;100.00;98829.72;3602474;39;20055;-63
2023/10/27 05:09:18;;;;;;;13.27;6.80;;;;;;;11.83;100.00;98815.56;3600726;39;20101;-63
2023/10/27 05:11:45;;;;;;;15.63;7.25;;;;;;;11.78;100.00;98813.31;3606014;39;20121;-63
2023/10/27 05:14:12;;;;;;;12.95;6.97;;;;;;;11.11;100.00;98706.97;3602825;39;20058;-63
2023/10/27 05:16:39;;;;;;;16.83;7.45;;;;;;;11.82;100.00;98820.06;3606560;39;20055;-63
2023/10/27 05:19:05;;;;;;;13.07;6.88;;;;;;;11.80;100.00;98824.78;3605986;39;20058;-63
2023/10/27 05:21:31;;;;;;;12.13;7.03;;;;;;;11.30;100.00;98747.19;3604241;39;20241;-63
2023/10/27 05:23:58;;;;;;;13.90;6.60;;;;;;;11.77;100.00;98818.84;3608529;39;20051;-63
2023/10/27 05:26:25;;;;;;;19.08;7.90;;;;;;;11.77;100.00;98819.69;3604584;39;20048;-64
2023/10/27 05:28:52;;;;;;;12.90;7.65;;;;;;;11.73;100.00;98810.22;3606725;39;20089;-64
2023/10/27 05:31:18;;;;;;;18.13;8.00;;;;;;;11.80;100.00;98810.47;3606444;39;20304;-63
2023/10/27 05:33:44;;;;;;;14.82;8.13;;;;;;;11.74;100.00;98803.84;3597368;39;20393;-63
2023/10/27 05:36:10;;;;;;;12.93;7.75;;;;;;;11.82;100.00;98817.38;3594637;39;20076;-63
2023/10/27 05:38:36;;;;;;;16.15;8.35;;;;;;;11.83;100.00;98810.16;3600974;39;20055;-63
2023/10/27 05:41:01;;;;;;;15.95;7.78;;;;;;;11.80;100.00;98822.09;3601073;39;20047;-63
2023/10/27 05:43:27;;;;;;;12.25;8.55;;;;;;;11.80;100.00;98815.88;3600111;39;20111;-63
2023/10/27 05:45:53;;;;;;;13.48;7.75;;;;;;;11.76;100.00;98804.53;3599204;39;20306;-63
2023/10/27 05:48:18;;;;;;;13.20;8.02;;;;;;;11.82;100.00;98812.00;3601134;39;20063;-63
2023/10/27 05:50:44;;;;;;;13.07;7.60;;;;;;;11.84;100.00;98815.41;3602101;39;20051;-63
2023/10/27 05:53:10;;;;;;;11.75;8.18;;;;;;;11.85;100.00;98814.41;3602869;39;20392;-63
2023/10/27 05:55:36;;;;;;;10.50;7.75;;;;;;;11.86;100.00;98815.25;3602725;39;20118;-64
2023/10/27 05:58:01;;;;;;;11.85;7.90;;;;;;;11.83;100.00;98810.16;3603899;39;20063;-64
2023/10/27 06:00:29;;;;;;;11.20;7.60;;;;;;;11.87;100.00;98811.59;3601552;39;20062;-63
2023/10/27 06:02:54;;;;;;;12.27;8.18;;;;;;;11.88;100.00;98821.34;3601981;39;20090;-64
2023/10/27 06:05:22;;;;;;;11.52;7.55;;;;;;;11.89;100.00;98812.25;3601859;39;20386;-64
2023/10/27 06:07:48;;;;;;;11.90;8.27;;;;;;;11.84;100.00;98810.03;3605411;39;20055;-63
2023/10/27 06:10:13;;;;;;;11.10;7.43;;;;;;;11.91;100.00;98817.50;3607437;39;20111;-63
2023/10/27 06:12:39;;;;;;;12.90;7.45;;;;;;;11.00;100.00;98669.53;3594182;39;20357;-64
2023/10/27 06:15:06;;;;;;;12.95;7.80;;;;;;;11.84;100.00;98818.13;3602682;39;20059;-64
2023/10/27 06:17:33;;;;;;;11.63;7.75;;;;;;;11.89;100.00;98824.88;3595543;39;20067;-63
2023/10/27 06:20:02;;;;;;;13.18;7.85;;;;;;;11.53;100.00;98760.22;3601501;39;20089;-63
2023/10/27 06:22:27;;;;;;;12.63;8.07;;;;;;;11.92;100.00;98824.56;3601579;39;20063;-64
2023/10/27 06:24:53;;;;;;;11.95;7.65;;;;;;;11.92;100.00;98829.97;3600690;39;20055;-64
2023/10/27 06:27:18;;;;;;;10.27;7.50;;;;;;;11.34;100.00;98736.97;3602015;39;20054;-64
2023/10/27 06:29:44;;;;;;;12.07;7.55;;;;;;;11.87;100.00;98830.44;3603548;39;20047;-63
2023/10/27 06:32:10;;;;;;;12.05;7.60;;;;;;;11.90;100.00;98831.97;3603225;39;20047;-64
2023/10/27 06:34:35;;;;;;;9.85;7.70;;;;;;;11.90;100.00;98823.91;3600717;39;20055;-64
2023/10/27 06:37:01;;;;;;;12.10;8.20;;;;;;;11.91;100.00;98834.50;3606270;39;20117;-64
2023/10/27 06:39:27;;;;;;;14.57;8.30;;;;;;;11.91;100.00;98839.88;3603395;39;20063;-64
2023/10/27 06:41:53;;;;;;;11.32;7.70;;;;;;;11.93;100.00;98834.38;3605909;39;20059;-64
2023/10/27 06:44:19;;;;;;;11.07;7.70;;;;;;;11.91;100.00;98839.88;3606807;39;20120;-64
2023/10/27 06:46:45;;;;;;;12.68;7.57;;;;;;;11.37;100.00;98750.97;3603384;39;20287;-64
2023/10/27 06:49:15;;;;;;;9.88;7.68;;;;;;;11.92;100.00;98841.56;3600917;39;20066;-64
2023/10/27 06:51:41;;;;;;;12.93;7.45;;;;;;;11.93;100.00;98840.59;3603239;39;20105;-65
2023/10/27 06:54:06;;;;;;;8.88;6.57;;;;;;;11.93;100.00;98847.81;3602590;39;20087;-65
2023/10/27 06:56:32;;;;;;;7.72;6.57;;;;;;;11.92;100.00;98846.13;3601488;39;20103;-64
2023/10/27 06:58:58;;;;;;;7.20;6.50;;;;;;;11.93;100.00;98853.22;3602782;39;20275;-65
2023/10/27 07:01:23;;;;;;;7.68;5.80;;;;;;;11.93;100.00;98859.44;3606522;39;20306;-64
2023/10/27 07:03:50;;;;;;;7.30;6.43;;;;;;;11.93;100.00;98853.22;3603853;39;20127;-64
2023/10/27 07:06:17;;;;;;;10.48;6.88;;;;;;;11.92;100.00;98846.94;3600748;39;20113;-63
2023/10/27 07:08:44;;;;;;;7.55;5.90;;;;;;;11.93;100.00;98847.81;3591742;39;20084;-64
2023/10/27 07:11:10;;;;;;;9.80;6.93;;;;;;;11.36;100.00;98769.97;3606828;39;20046;-64
2023/10/27 07:13:36;;;;;;;7.00;6.32;;;;;;;11.85;100.00;98851.25;3602109;39;20099;-63
2023/10/27 07:16:02;;;;;;;8.82;6.78;;;;;;;11.89;100.00;98862.56;3596577;39;20132;-63
2023/10/27 07:18:29;;;;;;;8.57;6.80;;;;;;;11.91;100.00;98863.28;3602590;39;20096;-63
2023/10/27 07:20:56;;;;;;;8.38;7.28;;;;;;;11.94;100.00;98869.19;3601148;39;20095;-62
2023/10/27 07:23:23;;;;;;;9.05;7.43;;;;;;;11.98;100.00;98867.03;3601722;39;20047;-62
2023/10/27 07:25:49;;;;;;;10.68;7.93;;;;;;;11.95;100.00;98873.56;3595026;39;20291;-62
2023/10/27 07:28:15;;;;;;;8.68;7.68;;;;;;;11.99;100.00;98875.00;3605324;39;20123;-63
2023/10/27 07:30:41;;;;;;;9.52;8.05;;;;;;;11.97;100.00;98876.97;3601093;39;20055;-63
2023/10/27 07:33:10;;;;;;;10.30;8.48;;;;;;;11.69;100.00;98833.06;3600900;39;20400;-62
2023/10/27 07:35:35;;;;;;;9.38;7.97;;;;;;;11.94;100.00;98866.50;3601675;39;20056;-63
2023/10/27 07:38:01;;;;;;;8.60;7.80;;;;;;;11.58;100.00;98809.06;3600314;39;20082;-63
2023/10/27 07:40:26;;;;;;;9.65;8.38;;;;;;;12.03;100.00;98883.59;3600646;39;20055;-63
2023/10/27 07:42:53;;;;;;;9.45;8.55;;;;;;;12.01;100.00;98875.66;3601566;39;20405;-63
2023/10/27 07:45:18;;;;;;;10.63;9.50;;;;;;;12.05;100.00;98884.28;3600172;39;20085;-63
2023/10/27 07:47:44;;;;;;;10.45;8.88;;;;;;;12.07;100.00;98882.28;3593631;39;20330;-62
2023/10/27 07:50:11;;;;;;;10.05;8.40;;;;;;;12.11;100.00;98886.38;3602432;39;20511;-62
2023/10/27 07:52:37;;;;;;;9.43;8.52;;;;;;;12.12;100.00;98896.16;3600344;39;20047;-62
2023/10/27 07:55:06;;;;;;;9.25;8.20;;;;;;;12.10;100.00;98886.53;3600537;39;20039;-62
2023/10/27 07:57:34;;;;;;;9.20;7.55;;;;;;;12.06;100.00;98883.31;3599348;39;20124;-62
2023/10/27 08:00:02;;;;;;;9.02;7.35;;;;;;;12.18;100.00;98895.56;3605035;39;20120;-62
2023/10/27 08:02:28;;;;;;;8.18;7.28;;;;;;;12.19;100.00;98897.25;3602736;39;20165;-62
2023/10/27 08:04:53;;;;;;;8.60;7.00;;;;;;;12.20;100.00;98906.16;3602380;39;20055;-62
2023/10/27 08:07:19;;;;;;;10.38;7.22;;;;;;;11.61;100.00;98811.44;3602487;39;20050;-63
2023/10/27 08:09:44;;;;;;;9.57;7.47;;;;;;;12.17;100.00;98906.47;3603820;39;20408;-63
2023/10/27 08:12:10;;;;;;;8.43;7.35;;;;;;;12.17;100.00;98903.78;3603080;39;20416;-62
2023/10/27 08:14:36;;;;;;;8.23;7.32;;;;;;;11.60;100.00;98813.25;3600606;39;20059;-63
2023/10/27 08:17:02;;;;;;;8.85;6.70;;;;;;;11.58;100.00;98807.22;3603050;39;20058;-62
2023/10/27 08:19:27;;;;;;;7.28;6.43;;;;;;;12.13;100.00;98897.84;3600249;39;20117;-63
2023/10/27 08:21:53;;;;;;;10.18;6.32;;;;;;;12.16;100.00;98907.47;3601835;39;20390;-62
2023/10/27 08:24:18;;;;;;;8.82;6.70;;;;;;;12.17;100.00;98909.16;3599578;39;20059;-62
2023/10/27 08:26:44;;;;;;;6.32;5.65;;;;;;;12.18;100.00;98921.63;3600685;39;20059;-62
2023/10/27 08:29:10;;;;;;;6.22;4.90;;;;;;;12.17;100.00;98925.31;3594639;39;20416;-63
2023/10/27 08:31:36;;;;;;;5.50;4.57;;;;;;;12.18;100.00;98918.94;3602363;39;20048;-62
2023/10/27 08:34:04;;;;;;;5.15;4.68;;;;;;;12.19;100.00;98926.88;3599516;39;20047;-63
2023/10/27 08:36:29;;;;;;;5.07;4.68;;;;;;;12.18;100.00;98927.00;3598852;39;20086;-62
2023/10/27 08:38:56;;;;;;;5.28;4.78;;;;;;;12.17;100.00;98928.84;3601475;39;20390;-63
2023/10/27 08:41:25;;;;;;;5.15;4.70;;;;;;;12.08;100.00;98917.16;3598717;39;20051;-62
2023/10/27 08:43:52;;;;;;;5.22;4.82;;;;;;;12.18;100.00;98932.41;3601441;39;20066;-62
2023/10/27 08:46:19;;;;;;;5.70;5.20;;;;;;;12.20;100.00;98931.25;3600406;39;20051;-62
2023/10/27 08:48:45;;;;;;;5.97;5.38;;;;;;;12.20;100.00;98928.56;3599331;39;20125;-63
2023/10/27 08:51:14;;;;;;;6.88;5.80;;;;;;;12.26;100.00;98935.19;3601416;39;20059;-65
2023/10/27 08:53:40;;;;;;;8.00;6.53;;;;;;;12.21;100.00;98922.19;3591086;39;20120;-62
2023/10/27 08:56:12;;;;;;;7.32;6.63;;;;;;;12.30;100.00;98932.06;3599045;39;20055;-62
2023/10/27 08:58:40;;;;;;;7.45;6.75;;;;;;;12.32;100.00;98935.44;3601092;39;20090;-62
2023/10/27 09:01:05;;;;;;;7.93;6.95;;;;;;;12.27;100.00;98923.41;3598973;39;20049;-62
2023/10/27 09:03:31;;;;;;;8.07;7.15;;;;;;;12.30;100.00;98921.28;3599133;39;20052;-62
2023/10/27 09:05:57;;;;;;;8.45;7.00;;;;;;;12.39;100.00;98926.72;3599514;39;20067;-62
2023/10/27 09:08:24;;;;;;;8.02;7.20;;;;;;;12.40;100.00;98931.13;3598640;39;20051;-62
2023/10/27 09:10:50;;;;;;;8.52;7.05;;;;;;;12.40;100.00;98945.47;3598547;39;20087;-63
2023/10/27 09:13:22;;;;;;;10.25;7.22;;;;;;;12.42;100.00;98937.22;3599224;39;20088;-63
2023/10/27 09:15:50;;;;;;;8.48;6.93;;;;;;;12.45;100.00;98934.22;3600589;39;20043;-63
2023/10/27 09:18:17;;;;;;;7.75;6.90;;;;;;;12.46;100.00;98936.75;3599369;39;20071;-63
2023/10/27 09:20:50;;;;;;;10.20;7.55;;;;;;;12.47;100.00;98937.59;3598079;39;20055;-62
2023/10/27 09:23:17;;;;;;;9.13;6.90;;;;;;;12.41;100.00;98933.66;3600910;39;20096;-63
2023/10/27 09:25:44;;;;;;;7.35;6.55;;;;;;;11.95;100.00;98843.13;3601803;39;20057;-63
2023/10/27 09:28:11;;;;;;;7.80;6.85;;;;;;;12.26;100.00;98895.63;3600427;39;20052;-63
2023/10/27 09:30:43;;;;;;;12.68;8.63;;;;;;;12.53;100.00;98939.69;3594721;39;20399;-63
2023/10/27 09:33:23;;;;;;;9.70;7.55;;;;;;;12.10;100.00;98856.91;3602221;39;20110;-63
2023/10/27 09:35:51;;;;;;;10.15;7.82;;;;;;;12.59;100.00;98941.78;3602847;39;20054;-64
2023/10/27 09:38:20;;;;;;;8.45;7.57;;;;;;;12.60;100.00;98938.06;3598905;39;20055;-64
2023/10/27 09:40:47;;;;;;;9.13;7.80;;;;;;;12.62;100.00;98940.59;3597720;39;20178;-63
2023/10/27 09:43:21;;;;;;;11.60;8.00;;;;;;;12.65;100.00;98940.28;3600974;39;20090;-63
2023/10/27 09:45:57;;;;;;;10.20;7.90;;;;;;;12.13;100.00;98853.91;3604350;39;20055;-64
2023/10/27 09:48:27;;;;;;;9.40;8.18;;;;;;;12.71;100.00;98934.28;3597666;39;20117;-63
2023/10/27 09:51:10;;;;;;;11.13;8.57;;;;;;;12.71;100.00;98927.03;3597652;39;20079;-63
2023/10/27 09:53:37;;;;;;;12.02;9.10;;;;;;;12.77;100.00;98931.81;3600631;39;20125;-64
2023/10/27 09:56:03;;;;;;;12.10;9.02;;;;;;;12.78;100.00;98927.25;3600994;39;20063;-64
2023/10/27 09:58:33;;;;;;;10.15;8.90;;;;;;;12.93;100.00;98949.97;3599788;39;20055;-64
2023/10/27 10:01:02;;;;;;;12.55;9.65;;;;;;;12.90;100.00;98938.66;3599287;39;20054;-64
2023/10/27 10:03:29;;;;;;;12.20;9.52;;;;;;;12.93;100.00;98939.19;3602385;39;20071;-64
2023/10/27 10:06:15;;;;;;;12.05;9.50;;;;;;;12.85;100.00;98935.59;3600299;39;20055;-64
2023/10/27 10:09:05;;;;;;;13.10;9.55;;;;;;;12.94;100.00;98954.38;3600529;39;20116;-62
2023/10/27 10:11:55;;;;;;;12.07;9.60;;;;;;;12.91;100.00;98961.94;3600314;39;20121;-63
2023/10/27 10:14:36;;;;;;;12.75;10.38;;;;;;;12.87;100.00;98971.31;3599832;39;20055;-63
2023/10/27 10:17:02;;;;;;;13.48;10.35;;;;;;;12.76;100.00;98957.06;3601888;39;20059;-63
2023/10/27 10:19:50;;;;;;;11.95;10.13;;;;;;;12.77;100.00;98955.22;3602351;39;20063;-62
2023/10/27 10:22:37;;;;;;;13.63;10.32;;;;;;;12.75;100.00;98968.88;3601053;39;20044;-63
2023/10/27 10:25:17;;;;;;;13.20;9.77;;;;;;;12.75;100.00;98965.34;3594302;39;20087;-63
2023/10/27 10:28:11;;;;;;;13.48;10.82;;;;;;;12.75;100.00;98963.47;3594996;39;20047;-62
2023/10/27 10:30:40;;;;;;;15.25;11.45;;;;;;;12.72;100.00;98965.66;3594981;39;20465;-62
2023/10/27 10:33:19;;;;;;;15.75;11.85;;;;;;;12.70;100.00;98957.69;3598191;39;20063;-62
2023/10/27 10:35:49;;;;;;;13.50;10.38;;;;;;;12.68;100.00;98956.16;3601259;39;20308;-63
2023/10/27 10:38:21;;;;;;;15.57;10.70;;;;;;;12.67;100.00;98960.69;3601116;39;20460;-63
2023/10/27 10:40:58;;;;;;;14.73;11.27;;;;;;;12.68;100.00;98967.78;3602874;39;20071;-63
2023/10/27 10:43:36;;;;;;;15.18;11.50;;;;;;;12.69;100.00;98964.09;3600510;39;20410;-63
2023/10/27 10:46:11;;;;;;;14.30;11.50;;;;;;;12.70;100.00;98971.19;3594506;39;20099;-63
2023/10/27 10:48:46;;;;;;;18.10;13.15;;;;;;;12.70;100.00;98963.09;3602192;39;20385;-62
2023/10/27 10:51:15;;;;;;;18.42;13.48;;;;;;;12.67;100.00;98958.00;3600066;39;20050;-62
2023/10/27 10:53:44;;;;;;;17.42;12.80;;;;;;;12.72;100.00;98963.78;3600744;39;20287;-62
2023/10/27 10:56:10;;;;;;;16.63;13.52;;;;;;;12.74;100.00;98955.53;3594222;39;20355;-63
2023/10/27 10:58:37;;;;;;;18.10;13.80;;;;;;;12.79;100.00;98964.03;3602227;39;21024;-63
2023/10/27 11:01:04;;;;;;;17.83;13.98;;;;;;;12.82;100.00;98962.88;3590263;39;20043;-62
2023/10/27 11:03:33;;;;;;;17.02;13.02;;;;;;;12.85;100.00;98955.31;3603717;39;20128;-63
2023/10/27 11:06:05;;;;;;;16.02;11.82;;;;;;;12.97;100.00;98958.59;3603495;39;20043;-63
2023/10/27 11:08:39;;;;;;;14.93;11.55;;;;;;;12.99;100.00;98962.81;3603427;39;20055;-63
2023/10/27 11:11:16;;;;;;;15.27;11.25;;;;;;;13.05;100.00;98964.06;3588997;39;20156;-63
2023/10/27 11:13:57;;;;;;;15.70;10.70;;;;;;;13.10;100.00;98961.75;3593867;39;20055;-63
2023/10/27 11:16:25;;;;;;;12.60;9.48;;;;;;;13.16;100.00;98960.25;3598567;39;20139;-63
2023/10/27 11:18:57;;;;;;;14.35;8.50;;;;;;;13.21;100.00;98958.78;3601025;39;20058;-63